Time;durP1;ratioP1;P1;durP2;ratioP2;P2;SDS_P1;SDS_P2;PMS_P1;PMS_P2;Temp;Humidity;BMP_temperature;BMP_pressure;BME280_temperature;BME280_humidity;BME280_pressure;Samples;Min_cycle;Max_cycle;Signal;HPM_P1;HPM_P2
2023/12/04 00:00:33;;;;;;;5.90;5.30;;;;;;;26.70;18.59;101234.02;103439;1288;68460;-87
2023/12/04 00:02:59;;;;;;;6.80;5.40;;;;;;;26.69;18.80;101235.21;103459;1293;68479;-87
2023/12/04 00:05:24;;;;;;;5.70;5.10;;;;;;;26.68;18.65;101232.79;103205;1288;68378;-86
2023/12/04 00:07:50;;;;;;;5.30;4.70;;;;;;;26.68;18.64;101234.14;103408;1288;68495;-87
2023/12/04 00:10:15;;;;;;;7.70;5.30;;;;;;;26.67;18.70;101233.21;103476;1289;68495;-87
2023/12/04 00:12:41;;;;;;;5.60;5.00;;;;;;;26.66;18.86;101242.05;103130;1289;68492;-87
2023/12/04 00:15:07;;;;;;;5.90;5.30;;;;;;;26.65;18.66;101244.75;103386;1288;68501;-87
2023/12/04 00:17:33;;;;;;;6.90;5.40;;;;;;;26.64;18.66;101248.36;103480;1294;68466;-87
2023/12/04 00:19:58;;;;;;;5.90;5.10;;;;;;;26.63;18.50;101257.52;103480;1288;68298;-87
2023/12/04 00:22:24;;;;;;;6.10;4.90;;;;;;;26.63;18.48;101257.31;103496;1288;68917;-87
2023/12/04 00:24:56;;;;;;;7.40;5.90;;;;;;;26.63;18.68;101259.70;103209;1288;69149;-92
2023/12/04 00:27:26;;;;;;;6.50;5.20;;;;;;;26.62;18.51;101262.17;103139;1291;72743;-87
2023/12/04 00:29:53;;;;;;;6.10;5.30;;;;;;;26.62;18.57;101264.66;103450;1288;68373;-87
2023/12/04 00:32:18;;;;;;;6.10;5.10;;;;;;;26.61;18.46;101267.56;103231;1294;68450;-87
2023/12/04 00:34:44;;;;;;;5.70;5.00;;;;;;;26.61;18.44;101265.18;99165;1294;5552028;-87
2023/12/04 00:37:09;;;;;;;5.80;5.20;;;;;;;26.60;18.54;101270.20;103514;1289;68462;-86
2023/12/04 00:39:35;;;;;;;5.80;5.10;;;;;;;26.60;18.45;101279.44;103342;1289;68495;-87
2023/12/04 00:42:00;;;;;;;6.60;5.60;;;;;;;26.60;18.52;101279.70;103299;1288;68866;-87
2023/12/04 00:44:26;;;;;;;6.10;5.50;;;;;;;26.60;18.39;101280.63;103527;1288;68486;-87
2023/12/04 00:46:52;;;;;;;5.90;5.30;;;;;;;26.59;18.53;101288.65;103418;1289;72611;-86
2023/12/04 00:49:17;;;;;;;6.10;5.10;;;;;;;26.59;18.37;101292.46;103511;1293;68452;-87
2023/12/04 00:52:00;;;;;;;6.60;5.40;;;;;;;26.59;18.42;101296.23;103385;1289;68473;-92
2023/12/04 00:54:25;;;;;;;6.10;5.30;;;;;;;26.58;18.32;101298.87;103351;1293;68369;-87
2023/12/04 00:56:51;;;;;;;6.10;5.50;;;;;;;26.58;18.53;101300.41;103428;1295;68509;-87
2023/12/04 00:59:16;;;;;;;7.50;5.00;;;;;;;26.57;18.38;101305.23;103332;1289;68460;-86
2023/12/04 01:01:42;;;;;;;6.70;5.50;;;;;;;26.57;18.32;101307.08;103425;1289;68448;-88
2023/12/04 01:04:07;;;;;;;6.90;5.10;;;;;;;26.57;18.29;101311.16;103357;1288;68524;-88
2023/12/04 01:06:33;;;;;;;6.60;5.80;;;;;;;26.57;18.27;101315.14;103380;1294;68480;-86
2023/12/04 01:08:58;;;;;;;6.60;5.30;;;;;;;26.57;18.26;101315.80;103521;1293;68444;-87
2023/12/04 01:11:24;;;;;;;6.30;5.20;;;;;;;26.57;18.30;101316.12;103480;1288;68390;-87
2023/12/04 01:13:49;;;;;;;6.10;5.50;;;;;;;26.56;18.26;101317.20;103525;1293;68389;-87
2023/12/04 01:16:15;;;;;;;6.00;5.40;;;;;;;26.56;18.18;101319.02;103579;1289;68412;-88
2023/12/04 01:18:49;;;;;;;6.50;5.50;;;;;;;26.56;18.25;101320.52;103229;1288;68475;-92
2023/12/04 01:21:14;;;;;;;6.00;5.30;;;;;;;26.55;18.20;101322.47;103313;1288;68479;-87
2023/12/04 01:23:40;;;;;;;6.90;5.40;;;;;;;26.56;18.17;101321.49;103569;1288;68489;-87
2023/12/04 01:26:06;;;;;;;6.80;5.50;;;;;;;26.56;18.31;101320.98;103419;1289;68487;-87
2023/12/04 01:28:31;;;;;;;6.70;5.70;;;;;;;26.55;18.24;101320.15;103389;1289;68600;-87
2023/12/04 01:30:57;;;;;;;6.80;5.50;;;;;;;26.55;18.09;101324.13;103780;1289;68514;-88
2023/12/04 01:33:22;;;;;;;6.00;5.20;;;;;;;26.55;18.09;101320.62;103218;1288;68443;-89
2023/12/04 01:35:48;;;;;;;6.20;5.50;;;;;;;26.55;17.94;101322.16;103594;1288;68463;-87
2023/12/04 01:38:13;;;;;;;7.50;5.40;;;;;;;26.55;18.11;101324.30;103602;1294;68384;-88
2023/12/04 01:40:39;;;;;;;6.00;5.30;;;;;;;26.55;17.97;101326.15;103652;1294;68476;-88
2023/12/04 01:43:05;;;;;;;6.20;5.40;;;;;;;26.55;18.04;101334.81;103550;1293;68395;-88
2023/12/04 01:48:11;;;;;;;6.50;5.50;;;;;;;26.54;18.10;101339.27;103434;1291;68342;-87
2023/12/04 01:50:36;;;;;;;5.70;5.10;;;;;;;26.54;18.06;101346.33;103283;1292;68593;-87
2023/12/04 01:53:02;;;;;;;6.10;5.00;;;;;;;26.54;18.06;101353.86;103345;1290;81732;-87
2023/12/04 01:55:28;;;;;;;5.50;4.90;;;;;;;26.54;18.17;101360.36;103276;1290;68551;-88
2023/12/04 01:57:55;;;;;;;6.00;5.30;;;;;;;26.54;18.03;101360.05;103298;1290;68423;-87
2023/12/04 02:00:21;;;;;;;6.50;5.30;;;;;;;26.54;17.96;101356.05;103122;1294;68466;-87
2023/12/04 02:02:47;;;;;;;5.40;4.90;;;;;;;26.52;18.04;101355.17;103464;1294;68441;-87
2023/12/04 02:05:12;;;;;;;5.80;5.10;;;;;;;26.52;18.00;101357.86;103463;1291;68422;-87
2023/12/04 02:07:38;;;;;;;6.50;5.30;;;;;;;26.52;18.06;101361.52;103251;1292;68480;-88
2023/12/04 02:10:04;;;;;;;5.90;5.30;;;;;;;26.52;18.15;101361.11;103353;1288;68941;-87
2023/12/04 02:12:38;;;;;;;6.50;5.20;;;;;;;26.52;17.97;101357.40;103253;1297;68542;-92
2023/12/04 02:15:04;;;;;;;6.00;5.00;;;;;;;26.52;18.03;101354.10;103393;1288;68442;-87
2023/12/04 02:17:29;;;;;;;6.00;5.20;;;;;;;26.52;18.01;101354.25;103268;1294;68435;-87
2023/12/04 02:19:55;;;;;;;6.10;5.30;;;;;;;26.52;18.00;101355.95;103345;1289;68438;-87
2023/12/04 02:22:20;;;;;;;5.70;5.10;;;;;;;26.51;18.08;101356.62;103368;1288;68481;-88
2023/12/04 02:24:46;;;;;;;5.40;4.90;;;;;;;26.51;17.86;101361.02;103625;1289;68387;-87
2023/12/04 02:30:00;;;;;;;7.10;5.30;;;;;;;26.51;17.93;101366.64;103184;1291;68361;-87
2023/12/04 02:32:30;;;;;;;6.60;4.80;;;;;;;26.50;17.73;101367.16;103279;1291;69620;-87
2023/12/04 02:34:56;;;;;;;;;;;;;;;26.50;17.80;101371.50;103332;1295;73842;-87
2023/12/04 02:37:22;;;;;;;6.30;4.90;;;;;;;26.48;18.12;101369.41;103419;1295;68440;-88
2023/12/04 02:39:49;;;;;;;6.70;4.90;;;;;;;26.49;17.97;101367.09;103219;1291;68446;-87
2023/12/04 02:44:55;;;;;;;5.60;5.10;;;;;;;26.48;17.95;101364.36;103256;1294;68384;-87
2023/12/04 02:47:20;;;;;;;5.90;5.30;;;;;;;26.48;17.77;101367.34;103221;1292;68501;-87
2023/12/04 02:49:46;;;;;;;6.00;5.10;;;;;;;26.48;17.83;101369.58;103427;1291;68452;-88
2023/12/04 02:52:12;;;;;;;5.50;4.90;;;;;;;26.48;17.78;101372.41;103657;1291;66484;-89
2023/12/04 02:54:37;;;;;;;5.20;4.70;;;;;;;26.49;17.68;101375.64;104040;1291;68781;-88
2023/12/04 02:57:03;;;;;;;5.70;5.10;;;;;;;26.49;17.76;101373.94;104911;1291;68470;-88
2023/12/04 02:59:28;;;;;;;6.30;5.00;;;;;;;26.49;17.83;101377.54;104941;1291;69302;-88
2023/12/04 03:01:54;;;;;;;5.50;4.60;;;;;;;26.50;17.68;101377.90;105135;1291;68453;-88
2023/12/04 03:04:19;;;;;;;5.20;4.70;;;;;;;26.51;17.69;101379.34;104830;1291;66620;-88
2023/12/04 03:06:45;;;;;;;5.50;4.90;;;;;;;26.52;17.49;101381.55;103734;1295;68492;-87
2023/12/04 03:11:57;;;;;;;5.70;5.00;;;;;;;26.52;17.69;101392.64;103413;1289;552278;-87
2023/12/04 03:14:23;;;;;;;5.90;5.30;;;;;;;26.53;17.62;101396.14;103534;1294;69299;-87
2023/12/04 03:16:50;;;;;;;7.00;5.50;;;;;;;26.53;17.67;101399.80;103710;1294;68895;-88
2023/12/04 03:19:15;;;;;;;6.20;4.90;;;;;;;26.53;17.78;101399.14;103518;1294;68559;-88
2023/12/04 03:21:41;;;;;;;6.10;4.90;;;;;;;26.53;17.74;101405.64;103769;1289;68454;-87
2023/12/04 03:26:46;;;;;;;5.80;4.90;;;;;;;26.52;17.55;101402.28;103493;1291;73806;-88
2023/12/04 03:29:11;;;;;;;8.60;5.50;;;;;;;26.51;17.56;101405.39;103494;1290;68485;-88
2023/12/04 03:31:38;;;;;;;5.30;4.80;;;;;;;26.50;17.66;101398.48;103435;1291;68460;-87
2023/12/04 03:34:04;;;;;;;5.30;4.80;;;;;;;26.50;17.83;101404.02;103518;1294;68466;-88
2023/12/04 03:36:29;;;;;;;6.20;5.10;;;;;;;26.49;17.70;101400.52;103262;1291;68450;-88
2023/12/04 03:38:55;;;;;;;6.20;4.90;;;;;;;26.49;17.62;101405.35;103378;1294;68450;-87
2023/12/04 03:41:22;;;;;;;5.80;5.10;;;;;;;26.48;17.65;101407.65;103524;1292;68436;-87
2023/12/04 03:43:47;;;;;;;5.90;5.00;;;;;;;26.48;17.63;101414.27;103477;1291;68344;-88
2023/12/04 03:46:13;;;;;;;6.30;5.10;;;;;;;26.48;17.61;101417.70;103411;1292;68549;-88
2023/12/04 03:48:38;;;;;;;8.70;5.50;;;;;;;26.45;17.77;101413.41;103632;1292;68384;-89
2023/12/04 03:53:44;;;;;;;7.70;5.10;;;;;;;26.37;17.62;101414.80;103462;1291;68352;-89
2023/12/04 03:56:10;;;;;;;6.90;5.00;;;;;;;26.36;17.85;101413.05;103681;1291;68374;-88
2023/12/04 03:58:37;;;;;;;6.30;5.10;;;;;;;26.34;17.78;101421.34;103591;1291;68810;-88
2023/12/04 04:01:03;;;;;;;6.80;5.10;;;;;;;26.35;17.73;101425.86;104002;1290;68502;-88
2023/12/04 04:03:28;;;;;;;7.10;4.80;;;;;;;26.36;17.82;101424.09;104546;1290;68367;-87
2023/12/04 04:05:54;;;;;;;7.50;5.40;;;;;;;26.37;17.77;101424.80;104290;1290;68427;-88
2023/12/04 04:08:19;;;;;;;7.20;4.80;;;;;;;26.39;17.88;101427.23;104669;1291;68409;-88
2023/12/04 04:10:45;;;;;;;7.50;5.20;;;;;;;26.39;17.83;101433.72;104552;1291;71569;-88
2023/12/04 04:13:11;;;;;;;9.70;5.50;;;;;;;26.40;18.00;101434.73;104582;1291;68425;-88
2023/12/04 04:15:36;;;;;;;40.30;7.50;;;;;;;26.39;17.97;101436.45;104443;1290;68492;-88
2023/12/04 04:18:11;;;;;;;57.00;8.10;;;;;;;26.35;17.82;101440.26;104399;1292;68437;-93
2023/12/04 04:20:36;;;;;;;50.10;7.40;;;;;;;26.30;17.85;101436.42;103790;1290;68567;-88
2023/12/04 04:23:02;;;;;;;26.80;6.30;;;;;;;26.25;18.36;101431.64;103892;1291;68402;-88
2023/12/04 04:25:27;;;;;;;28.10;6.20;;;;;;;26.21;18.60;101432.30;103639;1292;68457;-89
2023/12/04 04:27:53;;;;;;;18.20;5.80;;;;;;;26.18;18.91;101434.65;103619;1291;68940;-88
2023/12/04 04:30:18;;;;;;;16.00;5.50;;;;;;;26.17;19.06;101438.83;103677;1291;68369;-89
2023/12/04 04:32:44;;;;;;;16.00;5.80;;;;;;;26.17;19.40;101443.06;103189;1291;68542;-88
2023/12/04 04:35:09;;;;;;;11.50;6.40;;;;;;;26.16;19.37;101447.50;103382;1292;68430;-88
2023/12/04 04:37:35;;;;;;;17.30;7.50;;;;;;;26.12;19.45;101452.05;103411;1297;68551;-88
2023/12/04 04:40:01;;;;;;;15.30;8.80;;;;;;;26.02;19.32;101456.06;103436;1291;68479;-88
2023/12/04 04:42:27;;;;;;;13.00;9.90;;;;;;;25.69;19.07;101456.34;103612;1291;68346;-88
2023/12/04 04:45:10;;;;;;;13.20;10.10;;;;;;;25.02;18.75;101454.98;103264;1290;72910;-93
2023/12/04 04:47:35;;;;;;;11.50;10.20;;;;;;;24.21;19.09;101459.15;103567;1294;68437;-88
2023/12/04 04:50:01;;;;;;;14.20;9.20;;;;;;;23.58;19.51;101459.64;103706;1294;68544;-88
2023/12/04 04:52:26;;;;;;;12.90;10.00;;;;;;;23.13;19.79;101464.45;103549;1292;68440;-88
2023/12/04 04:54:52;;;;;;;13.10;9.80;;;;;;;22.78;19.96;101467.02;103543;1291;68457;-88
2023/12/04 04:57:18;;;;;;;11.90;8.70;;;;;;;22.49;20.01;101472.91;104152;1290;68437;-90
2023/12/04 04:59:44;;;;;;;12.80;8.50;;;;;;;22.23;20.08;101475.85;104166;1291;68390;-90
2023/12/04 05:02:37;;;;;;;10.70;9.00;;;;;;;21.97;20.15;101482.80;104246;1294;68489;-88
2023/12/04 05:05:04;;;;;;;10.90;8.70;;;;;;;21.84;20.22;101490.23;104798;1289;73625;-89
2023/12/04 05:10:58;;;;;;;13.90;8.50;;;;;;;21.50;20.31;101494.57;105257;1287;71435;-89
2023/12/04 05:13:35;;;;;;;13.80;8.50;;;;;;;21.39;20.55;101499.48;104943;1290;68436;-90
2023/12/04 05:16:13;;;;;;;12.00;9.00;;;;;;;21.20;20.74;101502.68;105194;1287;68395;-89
2023/12/04 05:18:39;;;;;;;18.10;8.80;;;;;;;21.01;20.62;101504.99;105212;1289;73693;-88
2023/12/04 05:21:28;;;;;;;16.10;8.30;;;;;;;20.87;20.85;101507.06;105163;1282;81512;-88
2023/12/04 05:24:20;;;;;;;10.60;6.90;;;;;;;20.90;21.01;101505.32;104683;1285;72274;31
2023/12/04 05:29:58;;;;;;;10.70;6.30;;;;;;;21.41;21.08;101502.06;97630;1291;68420;-90
2023/12/04 05:32:26;;;;;;;8.80;5.60;;;;;;;21.67;21.07;101501.58;104948;1294;74697;-88
2023/12/04 05:34:54;;;;;;;12.40;6.00;;;;;;;21.89;20.98;101502.80;104987;1291;82469;-88
2023/12/04 05:37:23;;;;;;;11.90;6.20;;;;;;;22.12;21.08;101512.70;105002;1291;72428;-87
2023/12/04 05:40:12;;;;;;;19.20;6.10;;;;;;;22.30;20.79;101514.74;105445;1287;68435;-88
2023/12/04 05:42:38;;;;;;;30.40;7.40;;;;;;;22.47;20.80;101522.76;105591;1294;68517;-88
2023/12/04 08:58:44;;;;;;;25.20;7.30;;;;;;;24.37;19.21;101622.86;105736;1299;67418;-90
2023/12/04 09:46:26;;;;;;;12.30;5.10;;;;;;;23.94;18.81;101610.70;84747;1305;73426;-92
2023/12/04 09:52:45;;;;;;;;;;;;;;;;;;;;;
2023/12/04 09:59:11;;;;;;;48.90;9.30;;;;;;;24.13;19.54;101601.92;82561;1310;68883;31
2023/12/04 10:17:56;;;;;;;40.20;8.10;;;;;;;24.25;19.24;101597.31;105679;1293;74556;31
2023/12/04 10:21:10;;;;;;;38.20;7.30;;;;;;;24.26;19.00;101585.69;105028;1296;556917;-93
2023/12/04 10:34:17;;;;;;;29.40;7.70;;;;;;;24.01;18.28;101586.81;104803;1299;71367;-90
2023/12/04 10:36:45;;;;;;;55.30;8.60;;;;;;;23.86;18.39;101583.88;104587;1299;68370;-89
2023/12/04 10:39:13;;;;;;;43.80;7.30;;;;;;;23.80;18.54;101582.20;104648;1299;66522;-90
2023/12/04 10:41:38;;;;;;;45.40;7.40;;;;;;;23.77;18.59;101583.44;105410;1299;65906;-87
2023/12/04 10:44:04;;;;;;;36.70;6.90;;;;;;;23.78;18.46;101582.66;105141;1293;67428;-88
2023/12/04 10:46:30;;;;;;;30.10;6.80;;;;;;;23.78;18.50;101586.36;105361;1299;66120;-89
2023/12/04 10:49:12;;;;;;;23.10;6.10;;;;;;;23.80;18.43;101587.35;105355;1300;66130;-86
2023/12/04 10:51:38;;;;;;;28.70;6.60;;;;;;;23.83;18.61;101586.39;104311;1303;66656;-89
2023/12/04 10:54:05;;;;;;;34.70;6.60;;;;;;;23.89;18.57;101585.48;104174;1300;68466;-89
2023/12/04 10:56:39;;;;;;;33.80;7.00;;;;;;;23.94;18.41;101578.38;104145;1301;68284;-89
2023/12/04 10:59:10;;;;;;;24.10;6.20;;;;;;;23.99;18.42;101573.13;104166;1304;72923;-88
2023/12/04 11:20:43;;;;;;;21.00;6.30;;;;;;;24.22;18.21;101573.42;89142;1295;66320;-92
2023/12/04 11:53:18;;;;;;;12.80;5.60;;;;;;;24.19;17.89;101548.44;105413;1292;66206;-91
2023/12/04 12:05:57;;;;;;;17.10;5.90;;;;;;;24.34;17.90;101543.14;96088;1300;68396;-89
2023/12/04 13:01:25;;;;;;;18.50;6.00;;;;;;;24.62;17.86;101507.64;86182;1296;553232;-90
2023/12/04 13:27:16;;;;;;;13.50;5.60;;;;;;;24.79;17.90;101537.58;95385;1299;68935;-92
2023/12/04 13:31:20;;;;;;;;;;;;;;;;;;;;;
2023/12/04 13:37:15;;;;;;;13.60;6.20;;;;;;;24.78;17.85;101554.89;104503;1302;68248;-92
2023/12/04 14:38:12;;;;;;;21.80;5.90;;;;;;;24.74;17.81;101587.61;104991;1296;553691;-91
2023/12/04 14:51:36;;;;;;;17.50;6.10;;;;;;;24.76;17.92;101593.89;87216;1299;68623;31
2023/12/04 15:57:14;;;;;;;16.70;7.10;;;;;;;24.72;17.86;101631.13;95892;1302;72459;-92
2023/12/04 16:02:56;;;;;;;30.80;7.80;;;;;;;24.71;18.14;101630.61;92966;1305;66939;-90
2023/12/04 17:43:06;;;;;;;12.40;8.40;;;;;;;24.27;17.09;101652.52;93789;1302;67788;31
2023/12/04 17:49:13;;;;;;;15.00;8.90;;;;;;;24.24;17.06;101647.91;104869;1301;73176;-93
2023/12/04 17:59:02;;;;;;;37.00;10.10;;;;;;;24.19;17.17;101641.67;88069;1311;67854;-92
2023/12/04 18:08:17;;;;;;;78.00;14.10;;;;;;;24.16;17.22;101647.45;104404;1304;67287;-92
2023/12/04 18:17:25;;;;;;;43.90;12.60;;;;;;;24.12;17.15;101653.09;104538;1304;67227;-91
2023/12/04 19:28:29;;;;;;;14.20;8.90;;;;;;;23.95;17.42;101650.87;93473;1305;558567;31
2023/12/04 23:08:54;;;;;;;;;;;;;;;;;;;;;
